Terminal Aerodrome Forecast
Issued by NWS Salt Lake City, UT

Home | Current Version | Previous Version | Text Only | Print | Product List | Glossary On
Versions: 1 2 3 4 5 6 7 8 9 10 11 12 13 14 15 16 17 18 19 20 21 22 23 24 25 26 27 28 29 30 31 32 33 34 35 36
000
FTUS45 KSLC 271120
TAFSLC
TAF
KSLC 271120Z 2712/2818 30014G21KT P6SM -SHRA SCT030 BKN050
     FM271900 33015G22KT P6SM VCSH SCT040 BKN070
     FM280200 34010KT P6SM SCT050 BKN080
     FM280800 31008KT P6SM VCSH SCT030 BKN060
     FM281300 31008KT 2SM -SHSN SCT010 BKN025=

USA.gov is the U.S. government's official web portal to all federal, state and local government web resources and services.